sensor_id;sensor_type;location;lat;lon;timestamp;pressure;altitude;pressure_sealevel;temperature;humidity
25560;BME280;13450;49.374;8.584;2023-08-07T00:02:15;100291.81;;;12.35;100.00
25560;BME280;13450;49.374;8.584;2023-08-07T00:04:43;100293.66;;;12.34;100.00
25560;BME280;13450;49.374;8.584;2023-08-07T00:07:08;100310.81;;;12.33;100.00
25560;BME280;13450;49.374;8.584;2023-08-07T00:09:33;100295.97;;;12.37;100.00
25560;BME280;13450;49.374;8.584;2023-08-07T00:11:58;100294.31;;;12.36;100.00
25560;BME280;13450;49.374;8.584;2023-08-07T00:14:26;100287.50;;;12.40;100.00
25560;BME280;13450;49.374;8.584;2023-08-07T00:16:51;100289.78;;;12.43;100.00
25560;BME280;13450;49.374;8.584;2023-08-07T00:19:19;100281.13;;;12.41;100.00
25560;BME280;13450;49.374;8.584;2023-08-07T00:21:44;100280.91;;;12.43;100.00
25560;BME280;13450;49.374;8.584;2023-08-07T00:24:10;100286.06;;;12.45;100.00
25560;BME280;13450;49.374;8.584;2023-08-07T00:26:35;100292.06;;;12.47;100.00
25560;BME280;13450;49.374;8.584;2023-08-07T00:29:00;100278.66;;;12.47;100.00
25560;BME280;13450;49.374;8.584;2023-08-07T00:31:26;100284.81;;;12.47;100.00
25560;BME280;13450;49.374;8.584;2023-08-07T00:33:51;100288.16;;;12.49;100.00
25560;BME280;13450;49.374;8.584;2023-08-07T00:36:19;100285.28;;;12.51;100.00
25560;BME280;13450;49.374;8.584;2023-08-07T00:38:47;100281.56;;;12.52;100.00
25560;BME280;13450;49.374;8.584;2023-08-07T00:41:16;100283.19;;;12.53;100.00
25560;BME280;13450;49.374;8.584;2023-08-07T00:43:43;100284.47;;;12.57;100.00
25560;BME280;13450;49.374;8.584;2023-08-07T00:46:11;100284.47;;;12.57;100.00
25560;BME280;13450;49.374;8.584;2023-08-07T00:48:36;100285.28;;;12.58;100.00
25560;BME280;13450;49.374;8.584;2023-08-07T00:51:02;100287.78;;;12.59;100.00
25560;BME280;13450;49.374;8.584;2023-08-07T00:53:29;100294.78;;;12.60;100.00
25560;BME280;13450;49.374;8.584;2023-08-07T00:55:55;100292.13;;;12.60;100.00
25560;BME280;13450;49.374;8.584;2023-08-07T00:58:22;100293.75;;;12.61;100.00
25560;BME280;13450;49.374;8.584;2023-08-07T01:00:48;100300.78;;;12.62;100.00
25560;BME280;13450;49.374;8.584;2023-08-07T01:03:13;100294.41;;;12.63;100.00
25560;BME280;13450;49.374;8.584;2023-08-07T01:05:39;100291.06;;;12.61;100.00
25560;BME280;13450;49.374;8.584;2023-08-07T01:08:05;100285.72;;;12.61;100.00
25560;BME280;13450;49.374;8.584;2023-08-07T01:10:42;100296.06;;;12.64;100.00
25560;BME280;13450;49.374;8.584;2023-08-07T01:13:19;100297.09;;;12.63;100.00
25560;BME280;13450;49.374;8.584;2023-08-07T01:15:50;100303.47;;;12.62;100.00
25560;BME280;13450;49.374;8.584;2023-08-07T01:18:17;100306.78;;;12.64;100.00
25560;BME280;13450;49.374;8.584;2023-08-07T01:20:43;100298.53;;;12.66;100.00
25560;BME280;13450;49.374;8.584;2023-08-07T01:23:08;100305.75;;;12.65;100.00
25560;BME280;13450;49.374;8.584;2023-08-07T01:25:34;100300.19;;;12.67;100.00
25560;BME280;13450;49.374;8.584;2023-08-07T01:28:06;100303.69;;;12.67;100.00
25560;BME280;13450;49.374;8.584;2023-08-07T01:30:42;100294.41;;;12.63;100.00
25560;BME280;13450;49.374;8.584;2023-08-07T01:33:32;100303.06;;;12.65;100.00
25560;BME280;13450;49.374;8.584;2023-08-07T01:36:02;100300.56;;;12.64;100.00
25560;BME280;13450;49.374;8.584;2023-08-07T01:38:30;100301.41;;;12.64;100.00
25560;BME280;13450;49.374;8.584;2023-08-07T01:40:56;100309.25;;;12.59;100.00
25560;BME280;13450;49.374;8.584;2023-08-07T01:43:24;100305.13;;;12.63;100.00
25560;BME280;13450;49.374;8.584;2023-08-07T01:45:50;100310.72;;;12.62;100.00
25560;BME280;13450;49.374;8.584;2023-08-07T01:48:15;100309.25;;;12.59;100.00
25560;BME280;13450;49.374;8.584;2023-08-07T01:50:40;100305.34;;;12.62;100.00
25560;BME280;13450;49.374;8.584;2023-08-07T01:53:05;100303.47;;;12.62;100.00
25560;BME280;13450;49.374;8.584;2023-08-07T01:55:31;100310.28;;;12.65;100.00
25560;BME280;13450;49.374;8.584;2023-08-07T01:57:59;100308.03;;;12.62;100.00
25560;BME280;13450;49.374;8.584;2023-08-07T02:00:24;100310.91;;;12.60;100.00
25560;BME280;13450;49.374;8.584;2023-08-07T02:02:49;100314.19;;;12.62;100.00
25560;BME280;13450;49.374;8.584;2023-08-07T02:05:15;100316.28;;;12.60;100.00
25560;BME280;13450;49.374;8.584;2023-08-07T02:07:41;100323.28;;;12.61;100.00
25560;BME280;13450;49.374;8.584;2023-08-07T02:10:07;100316.88;;;12.62;100.00
25560;BME280;13450;49.374;8.584;2023-08-07T02:12:33;100328.66;;;12.61;100.00
25560;BME280;13450;49.374;8.584;2023-08-07T02:15:00;100326.16;;;12.60;100.00
25560;BME280;13450;49.374;8.584;2023-08-07T02:17:27;100325.97;;;12.61;100.00
25560;BME280;13450;49.374;8.584;2023-08-07T02:19:52;100317.91;;;12.61;100.00
25560;BME280;13450;49.374;8.584;2023-08-07T02:22:18;100318.56;;;12.63;100.00
25560;BME280;13450;49.374;8.584;2023-08-07T02:24:44;100324.53;;;12.65;100.00
25560;BME280;13450;49.374;8.584;2023-08-07T02:27:09;100324.94;;;12.62;100.00
25560;BME280;13450;49.374;8.584;2023-08-07T02:29:34;100319.56;;;12.62;100.00
25560;BME280;13450;49.374;8.584;2023-08-07T02:32:01;100327.63;;;12.62;100.00
25560;BME280;13450;49.374;8.584;2023-08-07T02:34:30;100330.31;;;12.62;100.00
25560;BME280;13450;49.374;8.584;2023-08-07T02:36:55;100325.78;;;12.63;100.00
25560;BME280;13450;49.374;8.584;2023-08-07T02:39:21;100333.63;;;12.64;100.00
25560;BME280;13450;49.374;8.584;2023-08-07T02:41:46;100331.97;;;12.63;100.00
25560;BME280;13450;49.374;8.584;2023-08-07T02:44:11;100334.03;;;12.61;100.00
25560;BME280;13450;49.374;8.584;2023-08-07T02:46:37;100330.31;;;12.62;100.00
25560;BME280;13450;49.374;8.584;2023-08-07T02:49:02;100333.41;;;12.59;100.00
25560;BME280;13450;49.374;8.584;2023-08-07T02:51:30;100335.88;;;12.61;100.00
25560;BME280;13450;49.374;8.584;2023-08-07T02:53:56;100333.41;;;12.59;100.00
25560;BME280;13450;49.374;8.584;2023-08-07T02:56:21;100326.16;;;12.60;100.00
25560;BME280;13450;49.374;8.584;2023-08-07T02:58:46;100335.25;;;12.59;100.00
25560;BME280;13450;49.374;8.584;2023-08-07T03:01:15;100323.47;;;12.60;100.00
25560;BME280;13450;49.374;8.584;2023-08-07T03:03:40;100336.09;;;12.59;100.00
25560;BME280;13450;49.374;8.584;2023-08-07T03:06:05;100331.34;;;12.61;100.00
25560;BME280;13450;49.374;8.584;2023-08-07T03:08:31;100340.44;;;12.60;100.00
25560;BME280;13450;49.374;8.584;2023-08-07T03:10:57;100339.78;;;12.58;100.00
25560;BME280;13450;49.374;8.584;2023-08-07T03:13:24;100331.72;;;12.58;100.00
25560;BME280;13450;49.374;8.584;2023-08-07T03:15:49;100337.75;;;12.60;100.00
25560;BME280;13450;49.374;8.584;2023-08-07T03:18:18;100341.22;;;12.61;100.00
25560;BME280;13450;49.374;8.584;2023-08-07T03:20:44;100339.78;;;12.58;100.00
25560;BME280;13450;49.374;8.584;2023-08-07T03:23:10;100344.97;;;12.60;100.00
25560;BME280;13450;49.374;8.584;2023-08-07T03:25:35;100339.78;;;12.58;100.00
25560;BME280;13450;49.374;8.584;2023-08-07T03:28:00;100338.13;;;12.57;100.00
25560;BME280;13450;49.374;8.584;2023-08-07T03:30:26;100338.97;;;12.58;100.00
25560;BME280;13450;49.374;8.584;2023-08-07T03:32:51;100338.56;;;12.61;100.00
25560;BME280;13450;49.374;8.584;2023-08-07T03:35:16;100348.88;;;12.57;100.00
25560;BME280;13450;49.374;8.584;2023-08-07T03:37:42;100339.78;;;12.58;100.00
25560;BME280;13450;49.374;8.584;2023-08-07T03:40:07;100342.88;;;12.55;100.00
25560;BME280;13450;49.374;8.584;2023-08-07T03:42:33;100356.09;;;12.50;100.00
25560;BME280;13450;49.374;8.584;2023-08-07T03:44:58;100344.31;;;12.51;100.00
25560;BME280;13450;49.374;8.584;2023-08-07T03:47:23;100349.03;;;12.49;100.00
25560;BME280;13450;49.374;8.584;2023-08-07T03:49:51;100346.78;;;12.46;100.00
25560;BME280;13450;49.374;8.584;2023-08-07T03:52:16;100355.03;;;12.44;100.00
25560;BME280;13450;49.374;8.584;2023-08-07T03:54:43;100353.38;;;12.43;100.00
25560;BME280;13450;49.374;8.584;2023-08-07T03:57:10;100351.69;;;12.42;100.00
25560;BME280;13450;49.374;8.584;2023-08-07T03:59:36;100350.03;;;12.41;100.00
25560;BME280;13450;49.374;8.584;2023-08-07T04:02:02;100353.75;;;12.40;100.00
25560;BME280;13450;49.374;8.584;2023-08-07T04:04:27;100355.59;;;12.39;100.00
25560;BME280;13450;49.374;8.584;2023-08-07T04:06:53;100355.41;;;12.41;100.00
25560;BME280;13450;49.374;8.584;2023-08-07T04:09:18;100355.00;;;12.37;100.00
25560;BME280;13450;49.374;8.584;2023-08-07T04:11:43;100359.91;;;12.34;100.00
25560;BME280;13450;49.374;8.584;2023-08-07T04:14:08;100356.41;;;12.33;100.00
25560;BME280;13450;49.374;8.584;2023-08-07T04:16:34;100354.13;;;12.30;100.00
25560;BME280;13450;49.374;8.584;2023-08-07T04:18:59;100357.19;;;12.27;100.00
25560;BME280;13450;49.374;8.584;2023-08-07T04:21:24;100362.56;;;12.27;100.00
25560;BME280;13450;49.374;8.584;2023-08-07T04:23:50;100362.56;;;12.27;100.00
25560;BME280;13450;49.374;8.584;2023-08-07T04:26:15;100361.09;;;12.24;100.00
25560;BME280;13450;49.374;8.584;2023-08-07T04:28:40;100372.06;;;12.23;100.00
25560;BME280;13450;49.374;8.584;2023-08-07T04:31:06;100373.47;;;12.19;100.00
25560;BME280;13450;49.374;8.584;2023-08-07T04:33:31;100378.38;;;12.15;100.00
25560;BME280;13450;49.374;8.584;2023-08-07T04:35:59;100374.06;;;12.14;100.00
25560;BME280;13450;49.374;8.584;2023-08-07T04:38:24;100380.06;;;12.16;100.00
25560;BME280;13450;49.374;8.584;2023-08-07T04:40:51;100384.59;;;12.15;100.00
25560;BME280;13450;49.374;8.584;2023-08-07T04:43:17;100381.25;;;12.13;100.00
25560;BME280;13450;49.374;8.584;2023-08-07T04:45:43;100388.09;;;12.16;100.00
25560;BME280;13450;49.374;8.584;2023-08-07T04:48:10;100391.22;;;12.20;100.00
25560;BME280;13450;49.374;8.584;2023-08-07T04:50:36;100392.88;;;12.21;100.00
25560;BME280;13450;49.374;8.584;2023-08-07T04:53:02;100399.88;;;12.22;100.00
25560;BME280;13450;49.374;8.584;2023-08-07T04:55:27;100401.56;;;12.23;100.00
25560;BME280;13450;49.374;8.584;2023-08-07T04:57:52;100398.88;;;12.23;100.00
25560;BME280;13450;49.374;8.584;2023-08-07T05:00:20;100403.22;;;12.24;100.00
25560;BME280;13450;49.374;8.584;2023-08-07T05:02:46;100403.84;;;12.26;100.00
25560;BME280;13450;49.374;8.584;2023-08-07T05:05:13;100409.66;;;12.29;100.00
25560;BME280;13450;49.374;8.584;2023-08-07T05:07:40;100409.44;;;12.31;100.00
25560;BME280;13450;49.374;8.584;2023-08-07T05:10:05;100403.06;;;12.32;100.00
25560;BME280;13450;49.374;8.584;2023-08-07T05:12:31;100404.09;;;12.38;100.00
25560;BME280;13450;49.374;8.584;2023-08-07T05:14:56;100410.31;;;12.38;100.00
25560;BME280;13450;49.374;8.584;2023-08-07T05:17:21;100409.28;;;12.39;100.00
25560;BME280;13450;49.374;8.584;2023-08-07T05:19:47;100410.72;;;12.42;100.00
25560;BME280;13450;49.374;8.584;2023-08-07T05:22:12;100403.75;;;12.48;100.00
25560;BME280;13450;49.374;8.584;2023-08-07T05:24:37;100413.06;;;12.52;100.00
25560;BME280;13450;49.374;8.584;2023-08-07T05:27:07;100410.19;;;12.53;100.00
25560;BME280;13450;49.374;8.584;2023-08-07T05:29:33;100414.94;;;12.58;100.00
25560;BME280;13450;49.374;8.584;2023-08-07T05:32:01;100412.50;;;12.63;100.00
25560;BME280;13450;49.374;8.584;2023-08-07T05:34:28;100421.78;;;12.67;100.00
25560;BME280;13450;49.374;8.584;2023-08-07T05:36:56;100413.75;;;12.67;100.00
25560;BME280;13450;49.374;8.584;2023-08-07T05:39:21;100424.47;;;12.67;100.00
25560;BME280;13450;49.374;8.584;2023-08-07T05:41:46;100425.75;;;12.72;100.00
25560;BME280;13450;49.374;8.584;2023-08-07T05:44:12;100430.72;;;12.75;100.00
25560;BME280;13450;49.374;8.584;2023-08-07T05:46:37;100423.31;;;12.77;100.00
25560;BME280;13450;49.374;8.584;2023-08-07T05:49:02;100437.16;;;12.80;100.00
25560;BME280;13450;49.374;8.584;2023-08-07T05:51:27;100425.00;;;12.85;100.00
25560;BME280;13450;49.374;8.584;2023-08-07T05:53:53;100425.00;;;12.85;100.00
25560;BME280;13450;49.374;8.584;2023-08-07T05:56:18;100433.06;;;12.91;100.00
25560;BME280;13450;49.374;8.584;2023-08-07T05:58:44;100438.25;;;12.93;100.00
25560;BME280;13450;49.374;8.584;2023-08-07T06:01:09;100428.31;;;12.93;100.00
25560;BME280;13450;49.374;8.584;2023-08-07T06:03:35;100434.75;;;12.99;100.00
25560;BME280;13450;49.374;8.584;2023-08-07T06:06:00;100437.84;;;13.03;100.00
25560;BME280;13450;49.374;8.584;2023-08-07T06:08:25;100437.03;;;13.02;100.00
25560;BME280;13450;49.374;8.584;2023-08-07T06:10:51;100439.53;;;13.04;100.00
25560;BME280;13450;49.374;8.584;2023-08-07T06:13:16;100443.03;;;13.04;100.00
25560;BME280;13450;49.374;8.584;2023-08-07T06:15:44;100456.84;;;13.01;100.00
25560;BME280;13450;49.374;8.584;2023-08-07T06:18:09;100449.03;;;13.06;100.00
25560;BME280;13450;49.374;8.584;2023-08-07T06:20:36;100462.25;;;13.08;100.00
25560;BME280;13450;49.374;8.584;2023-08-07T06:23:02;100453.56;;;13.06;100.00
25560;BME280;13450;49.374;8.584;2023-08-07T06:25:27;100455.22;;;13.07;100.00
25560;BME280;13450;49.374;8.584;2023-08-07T06:27:52;100452.16;;;13.17;100.00
25560;BME280;13450;49.374;8.584;2023-08-07T06:30:20;100460.63;;;13.20;100.00
25560;BME280;13450;49.374;8.584;2023-08-07T06:32:45;100457.56;;;13.24;100.00
25560;BME280;13450;49.374;8.584;2023-08-07T06:35:10;100458.16;;;13.26;100.00
25560;BME280;13450;49.374;8.584;2023-08-07T06:37:36;100457.38;;;13.32;100.00
25560;BME280;13450;49.374;8.584;2023-08-07T06:40:01;100463.16;;;13.36;100.00
25560;BME280;13450;49.374;8.584;2023-08-07T06:42:27;100458.63;;;13.36;100.00
25560;BME280;13450;49.374;8.584;2023-08-07T06:44:53;100467.50;;;13.37;100.00
25560;BME280;13450;49.374;8.584;2023-08-07T06:47:18;100471.41;;;13.34;100.00
25560;BME280;13450;49.374;8.584;2023-08-07T06:49:43;100478.88;;;13.32;100.00
25560;BME280;13450;49.374;8.584;2023-08-07T06:52:10;100477.22;;;13.31;100.00
25560;BME280;13450;49.374;8.584;2023-08-07T06:54:38;100489.41;;;13.27;100.00
25560;BME280;13450;49.374;8.584;2023-08-07T06:57:04;100476.78;;;13.34;100.00
25560;BME280;13450;49.374;8.584;2023-08-07T06:59:29;100468.13;;;13.39;100.00
25560;BME280;13450;49.374;8.584;2023-08-07T07:01:54;100469.16;;;13.38;100.00
25560;BME280;13450;49.374;8.584;2023-08-07T07:04:20;100475.38;;;13.45;100.00
25560;BME280;13450;49.374;8.584;2023-08-07T07:06:45;100478.91;;;13.45;100.00
25560;BME280;13450;49.374;8.584;2023-08-07T07:09:13;100475.63;;;13.50;100.00
25560;BME280;13450;49.374;8.584;2023-08-07T07:11:42;100480.81;;;13.52;100.00
25560;BME280;13450;49.374;8.584;2023-08-07T07:14:08;100491.16;;;13.55;100.00
25560;BME280;13450;49.374;8.584;2023-08-07T07:16:33;100490.31;;;13.54;100.00
25560;BME280;13450;49.374;8.584;2023-08-07T07:18:58;100508.72;;;13.51;100.00
25560;BME280;13450;49.374;8.584;2023-08-07T07:21:25;100505.78;;;13.45;100.00
25560;BME280;13450;49.374;8.584;2023-08-07T07:23:52;100501.25;;;13.53;100.00
25560;BME280;13450;49.374;8.584;2023-08-07T07:26:18;100509.97;;;13.55;100.00
25560;BME280;13450;49.374;8.584;2023-08-07T07:28:43;100505.00;;;13.52;100.00
25560;BME280;13450;49.374;8.584;2023-08-07T07:31:09;100516.06;;;13.35;100.00
25560;BME280;13450;49.374;8.584;2023-08-07T07:33:37;100509.91;;;13.41;100.00
25560;BME280;13450;49.374;8.584;2023-08-07T07:36:06;100520.00;;;13.39;100.00
25560;BME280;13450;49.374;8.584;2023-08-07T07:38:34;100522.31;;;13.42;100.00
25560;BME280;13450;49.374;8.584;2023-08-07T07:40:59;100513.22;;;13.43;100.00
25560;BME280;13450;49.374;8.584;2023-08-07T07:43:25;100522.47;;;13.34;100.00
25560;BME280;13450;49.374;8.584;2023-08-07T07:45:50;100523.13;;;13.36;100.00
25560;BME280;13450;49.374;8.584;2023-08-07T07:48:15;100534.47;;;13.31;100.00
25560;BME280;13450;49.374;8.584;2023-08-07T07:50:41;100535.69;;;13.29;100.00
25560;BME280;13450;49.374;8.584;2023-08-07T07:53:06;100547.47;;;13.21;100.00
25560;BME280;13450;49.374;8.584;2023-08-07T07:55:31;100540.41;;;13.13;100.00
25560;BME280;13450;49.374;8.584;2023-08-07T07:57:57;100541.00;;;13.15;100.00
25560;BME280;13450;49.374;8.584;2023-08-07T08:00:22;100540.63;;;13.18;100.00
25560;BME280;13450;49.374;8.584;2023-08-07T08:02:52;100550.75;;;13.23;100.00
25560;BME280;13450;49.374;8.584;2023-08-07T08:05:18;100547.09;;;13.31;100.00
25560;BME280;13450;49.374;8.584;2023-08-07T08:07:43;100545.59;;;13.28;100.00
25560;BME280;13450;49.374;8.584;2023-08-07T08:10:11;100553.31;;;13.38;100.00
25560;BME280;13450;49.374;8.584;2023-08-07T08:12:39;100561.19;;;13.46;100.00
25560;BME280;13450;49.374;8.584;2023-08-07T08:15:08;100561.66;;;13.57;100.00
25560;BME280;13450;49.374;8.584;2023-08-07T08:17:33;100564.41;;;13.70;100.00
25560;BME280;13450;49.374;8.584;2023-08-07T08:19:58;100566.31;;;13.83;100.00
25560;BME280;13450;49.374;8.584;2023-08-07T08:22:23;100577.47;;;13.87;100.00
25560;BME280;13450;49.374;8.584;2023-08-07T08:24:49;100573.75;;;13.88;100.00
25560;BME280;13450;49.374;8.584;2023-08-07T08:27:17;100575.84;;;13.99;100.00
25560;BME280;13450;49.374;8.584;2023-08-07T08:29:43;100569.25;;;14.16;100.00
25560;BME280;13450;49.374;8.584;2023-08-07T08:32:08;100567.59;;;14.21;100.00
25560;BME280;13450;49.374;8.584;2023-08-07T08:34:34;100568.63;;;14.27;100.00
25560;BME280;13450;49.374;8.584;2023-08-07T08:36:59;100565.91;;;14.27;100.00
25560;BME280;13450;49.374;8.584;2023-08-07T08:39:25;100576.91;;;14.39;100.00
25560;BME280;13450;49.374;8.584;2023-08-07T08:41:50;100571.31;;;14.47;100.00
25560;BME280;13450;49.374;8.584;2023-08-07T08:44:17;100576.06;;;14.52;100.00
25560;BME280;13450;49.374;8.584;2023-08-07T08:46:45;100582.06;;;14.47;100.00
25560;BME280;13450;49.374;8.584;2023-08-07T08:49:15;100581.25;;;14.54;100.00
25560;BME280;13450;49.374;8.584;2023-08-07T08:51:42;100588.91;;;14.57;100.00
25560;BME280;13450;49.374;8.584;2023-08-07T08:54:08;100589.53;;;14.59;100.00
25560;BME280;13450;49.374;8.584;2023-08-07T08:56:34;100589.75;;;14.57;100.00
25560;BME280;13450;49.374;8.584;2023-08-07T08:59:00;100598.03;;;14.56;100.00
25560;BME280;13450;49.374;8.584;2023-08-07T09:01:26;100591.59;;;14.43;100.00
25560;BME280;13450;49.374;8.584;2023-08-07T09:03:53;100597.41;;;14.67;100.00
25560;BME280;13450;49.374;8.584;2023-08-07T09:06:20;100590.78;;;14.83;100.00
25560;BME280;13450;49.374;8.584;2023-08-07T09:08:48;100601.56;;;14.90;100.00
25560;BME280;13450;49.374;8.584;2023-08-07T09:11:15;100597.81;;;14.98;100.00
25560;BME280;13450;49.374;8.584;2023-08-07T09:13:42;100601.91;;;15.14;100.00
25560;BME280;13450;49.374;8.584;2023-08-07T09:16:12;100598.94;;;15.36;100.00
25560;BME280;13450;49.374;8.584;2023-08-07T09:18:38;100599.72;;;15.50;100.00
25560;BME280;13450;49.374;8.584;2023-08-07T09:21:03;100602.69;;;15.35;100.00
25560;BME280;13450;49.374;8.584;2023-08-07T09:23:28;100601.16;;;15.52;100.00
25560;BME280;13450;49.374;8.584;2023-08-07T09:26:01;100601.34;;;15.58;100.00
25560;BME280;13450;49.374;8.584;2023-08-07T09:28:28;100596.81;;;15.45;100.00
25560;BME280;13450;49.374;8.584;2023-08-07T09:30:54;100596.78;;;15.51;100.00
25560;BME280;13450;49.374;8.584;2023-08-07T09:33:26;100598.88;;;15.49;100.00
25560;BME280;13450;49.374;8.584;2023-08-07T09:35:52;100599.31;;;15.39;100.00
25560;BME280;13450;49.374;8.584;2023-08-07T09:38:18;100613.47;;;15.35;100.00
25560;BME280;13450;49.374;8.584;2023-08-07T09:40:43;100612.22;;;15.37;100.00
25560;BME280;13450;49.374;8.584;2023-08-07T09:43:08;100605.13;;;15.43;100.00
25560;BME280;13450;49.374;8.584;2023-08-07T09:45:33;100614.28;;;15.35;100.00
25560;BME280;13450;49.374;8.584;2023-08-07T09:48:05;100621.38;;;15.23;100.00
25560;BME280;13450;49.374;8.584;2023-08-07T09:50:32;100619.72;;;15.15;100.00
25560;BME280;13450;49.374;8.584;2023-08-07T09:52:57;100617.69;;;15.10;100.00
25560;BME280;13450;49.374;8.584;2023-08-07T09:55:23;100626.16;;;15.14;100.00
25560;BME280;13450;49.374;8.584;2023-08-07T09:57:50;100628.00;;;15.20;100.00
25560;BME280;13450;49.374;8.584;2023-08-07T10:00:18;100631.69;;;15.33;100.00
25560;BME280;13450;49.374;8.584;2023-08-07T10:02:46;100632.09;;;15.43;100.00
25560;BME280;13450;49.374;8.584;2023-08-07T10:05:16;100640.31;;;15.62;100.00
25560;BME280;13450;49.374;8.584;2023-08-07T10:07:41;100637.00;;;15.60;100.00
25560;BME280;13450;49.374;8.584;2023-08-07T10:10:08;100644.84;;;15.68;100.00
25560;BME280;13450;49.374;8.584;2023-08-07T10:12:37;100640.31;;;15.62;100.00
25560;BME280;13450;49.374;8.584;2023-08-07T10:15:03;100637.66;;;15.55;100.00
25560;BME280;13450;49.374;8.584;2023-08-07T10:17:30;100643.06;;;15.55;100.00
25560;BME280;13450;49.374;8.584;2023-08-07T10:19:56;100649.47;;;15.54;100.00
25560;BME280;13450;49.374;8.584;2023-08-07T10:22:26;100648.25;;;15.56;100.00
25560;BME280;13450;49.374;8.584;2023-08-07T10:24:53;100653.19;;;15.60;100.00
25560;BME280;13450;49.374;8.584;2023-08-07T10:27:23;100652.34;;;15.66;100.00
25560;BME280;13450;49.374;8.584;2023-08-07T10:29:50;100647.75;;;15.66;100.00
25560;BME280;13450;49.374;8.584;2023-08-07T10:32:19;100651.53;;;15.59;100.00
25560;BME280;13450;49.374;8.584;2023-08-07T10:34:47;100649.03;;;15.64;100.00
25560;BME280;13450;49.374;8.584;2023-08-07T10:37:43;100657.09;;;15.71;100.00
25560;BME280;13450;49.374;8.584;2023-08-07T10:40:11;100661.47;;;15.65;100.00
25560;BME280;13450;49.374;8.584;2023-08-07T10:43:20;100659.91;;;15.89;100.00
25560;BME280;13450;49.374;8.584;2023-08-07T10:45:45;100660.53;;;15.98;100.00
25560;BME280;13450;49.374;8.584;2023-08-07T10:48:11;100665.66;;;16.06;100.00
25560;BME280;13450;49.374;8.584;2023-08-07T10:50:56;100660.06;;;16.01;100.00
25560;BME280;13450;49.374;8.584;2023-08-07T10:53:37;100666.34;;;15.95;100.00
25560;BME280;13450;49.374;8.584;2023-08-07T10:56:08;100662.59;;;15.89;100.00
25560;BME280;13450;49.374;8.584;2023-08-07T10:58:38;100663.88;;;15.80;100.00
25560;BME280;13450;49.374;8.584;2023-08-07T11:03:53;100668.91;;;15.76;100.00
25560;BME280;13450;49.374;8.584;2023-08-07T11:06:23;100676.59;;;15.73;100.00
25560;BME280;13450;49.374;8.584;2023-08-07T11:08:52;100669.31;;;15.73;100.00
25560;BME280;13450;49.374;8.584;2023-08-07T11:11:20;100671.78;;;15.81;100.00
25560;BME280;13450;49.374;8.584;2023-08-07T11:13:48;100672.63;;;15.75;100.00
25560;BME280;13450;49.374;8.584;2023-08-07T11:16:13;100678.03;;;15.75;100.00
25560;BME280;13450;49.374;8.584;2023-08-07T11:18:39;100674.50;;;15.75;100.00
25560;BME280;13450;49.374;8.584;2023-08-07T11:21:08;100680.13;;;15.66;100.00
25560;BME280;13450;49.374;8.584;2023-08-07T11:23:35;100683.47;;;15.62;100.00
25560;BME280;13450;49.374;8.584;2023-08-07T11:26:01;100681.16;;;15.72;100.00
25560;BME280;13450;49.374;8.584;2023-08-07T11:28:28;100673.06;;;15.72;100.00
25560;BME280;13450;49.374;8.584;2023-08-07T11:30:56;100672.28;;;15.58;100.00
25560;BME280;13450;49.374;8.584;2023-08-07T11:33:24;100677.19;;;15.75;100.00
25560;BME280;13450;49.374;8.584;2023-08-07T11:35:50;100674.47;;;15.81;100.00
25560;BME280;13450;49.374;8.584;2023-08-07T11:38:29;100672.81;;;15.80;100.00
25560;BME280;13450;49.374;8.584;2023-08-07T11:41:03;100674.63;;;16.00;100.00
25560;BME280;13450;49.374;8.584;2023-08-07T11:43:32;100667.41;;;15.94;100.00
25560;BME280;13450;49.374;8.584;2023-08-07T11:46:00;100661.09;;;16.07;100.00
25560;BME280;13450;49.374;8.584;2023-08-07T11:48:26;100659.06;;;16.34;100.00
25560;BME280;13450;49.374;8.584;2023-08-07T11:50:55;100656.97;;;16.62;100.00
25560;BME280;13450;49.374;8.584;2023-08-07T11:53:21;100648.13;;;16.99;100.00
25560;BME280;13450;49.374;8.584;2023-08-07T11:55:58;100645.66;;;17.42;100.00
25560;BME280;13450;49.374;8.584;2023-08-07T11:58:25;100640.34;;;17.65;100.00
25560;BME280;13450;49.374;8.584;2023-08-07T12:00:52;100644.03;;;18.02;100.00
25560;BME280;13450;49.374;8.584;2023-08-07T12:03:31;100639.13;;;18.41;100.00
25560;BME280;13450;49.374;8.584;2023-08-07T12:05:59;100634.19;;;18.74;100.00
25560;BME280;13450;49.374;8.584;2023-08-07T12:11:03;100637.81;;;19.04;100.00
25560;BME280;13450;49.374;8.584;2023-08-07T12:13:36;100637.97;;;18.85;100.00
25560;BME280;13450;49.374;8.584;2023-08-07T12:16:02;100637.38;;;18.95;100.00
25560;BME280;13450;49.374;8.584;2023-08-07T12:18:33;100636.19;;;19.03;100.00
25560;BME280;13450;49.374;8.584;2023-08-07T12:21:04;100636.88;;;18.62;100.00
25560;BME280;13450;49.374;8.584;2023-08-07T12:23:35;100637.91;;;18.25;100.00
25560;BME280;13450;49.374;8.584;2023-08-07T12:26:01;100638.13;;;18.24;100.00
25560;BME280;13450;49.374;8.584;2023-08-07T12:28:27;100637.28;;;18.11;100.00
25560;BME280;13450;49.374;8.584;2023-08-07T12:30:52;100634.69;;;17.86;100.00
25560;BME280;13450;49.374;8.584;2023-08-07T12:33:20;100636.09;;;17.88;100.00
25560;BME280;13450;49.374;8.584;2023-08-07T12:35:45;100640.19;;;17.79;100.00
25560;BME280;13450;49.374;8.584;2023-08-07T12:38:11;100633.78;;;18.23;100.00
25560;BME280;13450;49.374;8.584;2023-08-07T12:40:39;100628.63;;;18.33;100.00
25560;BME280;13450;49.374;8.584;2023-08-07T12:43:05;100631.44;;;18.38;100.00
25560;BME280;13450;49.374;8.584;2023-08-07T12:45:31;100628.41;;;18.47;100.00